createdAt,value
2019-02-23T00:01:23.395Z,-8.91
2019-02-23T00:03:54.248Z,-8.92
2019-02-23T00:06:30.065Z,-8.92
2019-02-23T00:09:02.537Z,-8.96
2019-02-23T00:11:33.349Z,-8.93
2019-02-23T00:14:05.905Z,-8.93
2019-02-23T00:16:36.621Z,-8.96
2019-02-23T00:19:08.134Z,-8.93
2019-02-23T00:21:38.869Z,-8.93
2019-02-23T00:24:09.622Z,-8.95
2019-02-23T00:26:42.513Z,-8.91
2019-02-23T00:29:14.369Z,-8.93
2019-02-23T00:31:45.185Z,-9.01
2019-02-23T00:34:16.027Z,-9.03
2019-02-23T00:36:47.842Z,-8.99
2019-02-23T00:39:20.297Z,-9.02
2019-02-23T00:41:51.502Z,-9.04
2019-02-23T00:44:23.805Z,-9.05
2019-02-23T00:46:54.592Z,-9.05
2019-02-23T00:49:35.845Z,-9.13
2019-02-23T00:51:58.851Z,-9.13
2019-02-23T00:54:30.877Z,-9.20
2019-02-23T00:57:01.825Z,-9.16
2019-02-23T00:59:32.548Z,-9.14
2019-02-23T01:02:03.351Z,-9.14
2019-02-23T01:04:34.106Z,-9.14
2019-02-23T01:07:04.861Z,-9.19
2019-02-23T01:09:35.585Z,-9.20
2019-02-23T01:12:10.823Z,-9.22
2019-02-23T01:14:41.572Z,-9.24
2019-02-23T01:17:12.310Z,-9.29
2019-02-23T01:19:47.838Z,-9.30
2019-02-23T01:22:15.525Z,-9.36
2019-02-23T01:24:46.543Z,-9.30
2019-02-23T01:27:17.317Z,-9.32
2019-02-23T01:29:48.015Z,-9.26
2019-02-23T01:32:18.803Z,-9.30
2019-02-23T01:34:49.578Z,-9.31
2019-02-23T01:37:20.311Z,-9.35
2019-02-23T01:39:51.042Z,-9.35
2019-02-23T01:42:23.307Z,-9.37
2019-02-23T01:44:55.086Z,-9.43
2019-02-23T01:47:25.801Z,-9.42
2019-02-23T01:49:59.152Z,-9.43
2019-02-23T01:52:29.022Z,-9.44
2019-02-23T01:54:59.747Z,-9.46
2019-02-23T01:57:30.486Z,-9.45
2019-02-23T02:00:01.155Z,-9.45
2019-02-23T02:02:31.917Z,-9.44
2019-02-23T02:05:02.663Z,-9.48
2019-02-23T02:07:33.423Z,-9.48
2019-02-23T02:10:07.051Z,-9.49
2019-02-23T02:12:37.817Z,-9.45
2019-02-23T02:15:11.403Z,-9.39
2019-02-23T02:17:42.137Z,-9.44
2019-02-23T02:20:12.926Z,-9.42
2019-02-23T02:22:43.654Z,-9.40
2019-02-23T02:25:14.384Z,-9.40
2019-02-23T02:27:45.158Z,-9.41
2019-02-23T02:30:15.866Z,-9.40
2019-02-23T02:32:46.589Z,-9.45
2019-02-23T02:35:17.342Z,-9.41
2019-02-23T02:37:48.063Z,-9.45
2019-02-23T02:40:18.813Z,-9.39
2019-02-23T02:42:49.542Z,-9.40
2019-02-23T02:45:20.303Z,-9.40
2019-02-23T02:47:51.091Z,-9.38
2019-02-23T02:50:24.559Z,-9.42
2019-02-23T02:52:54.219Z,-9.35
2019-02-23T02:55:24.992Z,-9.37
2019-02-23T02:57:55.720Z,-9.36
2019-02-23T03:00:26.444Z,-9.41
2019-02-23T03:02:57.177Z,-9.40
2019-02-23T03:05:28.004Z,-9.42
2019-02-23T03:07:58.731Z,-9.45
2019-02-23T03:10:30.474Z,-9.51
2019-02-23T03:13:01.255Z,-9.50
2019-02-23T03:15:32.876Z,-9.53
2019-02-23T03:18:03.600Z,-9.53
2019-02-23T03:20:36.885Z,-9.52
2019-02-23T03:23:06.987Z,-9.50
2019-02-23T03:25:37.751Z,-9.47
2019-02-23T03:28:08.514Z,-9.46
2019-02-23T03:30:39.218Z,-9.51
2019-02-23T03:33:09.963Z,-9.55
2019-02-23T03:35:40.685Z,-9.57
2019-02-23T03:38:11.411Z,-9.62
2019-02-23T03:40:42.179Z,-9.62
2019-02-23T03:43:13.005Z,-9.61
2019-02-23T03:45:48.133Z,-9.55
2019-02-23T03:48:22.087Z,-9.49
2019-02-23T03:50:52.879Z,-9.49
2019-02-23T03:53:23.606Z,-9.52
2019-02-23T03:55:54.394Z,-9.55
2019-02-23T03:58:25.201Z,-9.56
2019-02-23T04:00:56.010Z,-9.50
2019-02-23T04:03:26.785Z,-9.55
2019-02-23T04:05:57.587Z,-9.52
2019-02-23T04:08:28.324Z,-9.51
2019-02-23T04:10:59.060Z,-9.45
2019-02-23T04:13:29.868Z,-9.50
2019-02-23T04:16:00.597Z,-9.45
2019-02-23T04:18:31.451Z,-9.38
2019-02-23T04:21:02.257Z,-9.44
2019-02-23T04:23:32.989Z,-9.45
2019-02-23T04:26:03.728Z,-9.56
2019-02-23T04:28:34.578Z,-9.49
2019-02-23T04:31:05.338Z,-9.40
2019-02-23T04:33:36.049Z,-9.40
2019-02-23T04:36:06.809Z,-9.36
2019-02-23T04:38:37.545Z,-9.37
2019-02-23T04:41:08.282Z,-9.35
2019-02-23T04:43:39.056Z,-9.35
2019-02-23T04:46:09.904Z,-9.32
2019-02-23T04:48:40.649Z,-9.39
2019-02-23T04:51:14.704Z,-9.38
2019-02-23T04:53:45.876Z,-9.37
2019-02-23T04:56:16.295Z,-9.31
2019-02-23T04:58:47.016Z,-9.29
2019-02-23T05:01:17.739Z,-9.20
2019-02-23T05:03:48.477Z,-9.15
2019-02-23T05:06:20.227Z,-9.09
2019-02-23T05:08:50.995Z,-9.07
2019-02-23T05:11:21.765Z,-9.06
2019-02-23T05:13:52.505Z,-9.04
2019-02-23T05:16:23.278Z,-9.00
2019-02-23T05:18:54.037Z,-8.86
2019-02-23T05:21:26.773Z,-8.71
2019-02-23T05:23:57.234Z,-8.57
2019-02-23T05:26:27.977Z,-8.40
2019-02-23T05:28:58.763Z,-8.25
2019-02-23T05:31:30.593Z,-8.09
2019-02-23T05:34:01.303Z,-7.97
2019-02-23T05:36:33.156Z,-7.88
2019-02-23T05:39:04.669Z,-7.88
2019-02-23T05:41:35.624Z,-7.92
2019-02-23T05:44:06.669Z,-7.74
2019-02-23T05:46:39.160Z,-7.74
2019-02-23T05:49:10.686Z,-7.64
2019-02-23T05:51:42.563Z,-7.47
2019-02-23T05:54:13.304Z,-7.25
2019-02-23T05:56:44.131Z,-7.18
2019-02-23T05:59:14.897Z,-7.12
2019-02-23T06:01:45.661Z,-7.08
2019-02-23T06:04:16.990Z,-7.08
2019-02-23T06:06:48.719Z,-6.97
2019-02-23T06:09:21.161Z,-6.97
2019-02-23T06:11:53.075Z,-6.75
2019-02-23T06:14:23.809Z,-6.94
2019-02-23T06:16:56.061Z,-6.74
2019-02-23T06:19:27.246Z,-6.74
2019-02-23T06:21:57.745Z,-6.59
2019-02-23T06:24:28.228Z,-6.59
2019-02-23T06:26:58.731Z,-6.71
2019-02-23T06:29:29.198Z,-6.71
2019-02-23T06:31:59.867Z,-6.64
2019-02-23T06:34:30.393Z,-6.64
2019-02-23T06:37:00.975Z,-6.55
2019-02-23T06:39:32.462Z,-6.55
2019-02-23T06:42:04.470Z,-6.33
2019-02-23T06:44:34.885Z,-6.33
2019-02-23T06:47:05.342Z,-6.39
2019-02-23T06:49:35.811Z,-6.40
2019-02-23T06:52:06.237Z,-6.38
2019-02-23T06:54:44.679Z,-6.29
2019-02-23T06:57:18.421Z,-6.26
2019-02-23T06:59:48.961Z,-6.15
2019-02-23T07:02:19.387Z,-6.29
2019-02-23T07:04:51.217Z,-6.22
2019-02-23T07:07:24.189Z,-6.14
2019-02-23T07:09:55.887Z,-5.85
2019-02-23T07:12:26.964Z,-6.08
2019-02-23T07:15:02.074Z,-5.80
2019-02-23T07:17:32.510Z,-5.87
2019-02-23T07:20:03.492Z,-5.96
2019-02-23T07:22:33.932Z,-5.60
2019-02-23T07:25:06.761Z,-5.59
2019-02-23T07:27:37.261Z,-5.76
2019-02-23T07:30:10.862Z,-5.64
2019-02-23T07:33:36.441Z,-5.62
2019-02-23T07:35:40.939Z,-5.79
2019-02-23T07:38:11.458Z,-5.55
2019-02-23T07:40:42.987Z,-5.91
2019-02-23T07:43:13.495Z,-5.65
2019-02-23T07:45:43.971Z,-5.36
2019-02-23T07:48:14.453Z,-5.27
2019-02-23T07:50:46.457Z,-5.21
2019-02-23T07:53:17.071Z,-4.93
2019-02-23T07:55:47.472Z,-5.14
2019-02-23T07:58:19.537Z,-4.80
2019-02-23T08:00:49.996Z,-5.17
2019-02-23T08:03:20.826Z,-5.30
2019-02-23T08:05:51.269Z,-5.25
2019-02-23T08:08:23.343Z,-5.09
2019-02-23T08:10:53.780Z,-5.27
2019-02-23T08:13:24.172Z,-5.37
2019-02-23T08:15:54.616Z,-5.58
2019-02-23T08:18:25.179Z,-5.48
2019-02-23T08:20:57.164Z,-5.39
2019-02-23T08:23:27.619Z,-5.28
2019-02-23T08:25:58.142Z,-5.20
2019-02-23T08:28:28.667Z,-4.96
2019-02-23T08:30:59.226Z,-4.84
2019-02-23T08:33:31.038Z,-4.90
2019-02-23T08:36:01.488Z,-5.17
2019-02-23T08:38:31.936Z,-5.21
2019-02-23T08:41:02.371Z,-4.96
2019-02-23T08:43:33.250Z,-4.71
2019-02-23T08:46:03.887Z,-5.09
2019-02-23T08:48:34.292Z,-4.97
2019-02-23T08:51:04.783Z,-4.88
2019-02-23T08:53:35.188Z,-4.80
2019-02-23T08:56:05.619Z,-4.78
2019-02-23T08:58:36.055Z,-4.85
2019-02-23T09:01:06.537Z,-5.05
2019-02-23T09:03:36.938Z,-4.64
2019-02-23T09:06:07.889Z,-4.55
2019-02-23T09:08:38.355Z,-4.18
2019-02-23T09:11:09.134Z,-4.47
2019-02-23T09:13:39.656Z,-4.62
2019-02-23T09:16:11.879Z,-4.92
2019-02-23T09:18:42.274Z,-5.00
2019-02-23T09:21:15.379Z,-4.83
2019-02-23T09:23:45.793Z,-4.83
2019-02-23T09:26:16.404Z,-4.69
2019-02-23T09:28:46.791Z,-4.85
2019-02-23T09:31:17.272Z,-4.78
2019-02-23T09:33:50.536Z,-4.75
2019-02-23T09:36:20.942Z,-4.67
2019-02-23T09:38:51.510Z,-4.53
2019-02-23T09:41:21.983Z,-4.31
2019-02-23T09:43:52.390Z,-4.04
2019-02-23T09:46:22.790Z,-4.39
2019-02-23T09:48:53.210Z,-4.52
2019-02-23T09:51:23.877Z,-4.43
2019-02-23T09:53:54.341Z,-4.21
2019-02-23T09:56:24.825Z,-3.85
2019-02-23T09:58:58.426Z,-3.85
2019-02-23T10:01:28.852Z,-3.98
2019-02-23T10:03:59.297Z,-4.07
2019-02-23T10:06:29.794Z,-3.90
2019-02-23T10:09:00.183Z,-4.12
2019-02-23T10:11:30.600Z,-4.13
2019-02-23T10:14:01.047Z,-4.13
2019-02-23T10:16:31.454Z,-4.04
2019-02-23T10:19:02.099Z,-3.92
2019-02-23T10:21:34.598Z,-3.87
2019-02-23T10:24:05.267Z,-3.82
2019-02-23T10:26:35.804Z,-3.66
2019-02-23T10:29:07.937Z,-3.84
2019-02-23T10:31:38.491Z,-3.83
2019-02-23T10:34:25.268Z,-3.73
2019-02-23T10:36:54.109Z,-3.92
2019-02-23T10:39:24.509Z,-4.12
2019-02-23T10:41:54.942Z,-4.04
2019-02-23T10:44:26.483Z,-4.12
2019-02-23T10:46:57.898Z,-4.09
2019-02-23T10:49:28.617Z,-4.23
2019-02-23T10:51:59.038Z,-4.27
2019-02-23T10:54:29.449Z,-4.11
2019-02-23T10:56:59.906Z,-4.00
2019-02-23T10:59:34.055Z,-3.89
2019-02-23T11:02:04.513Z,-4.03
2019-02-23T11:04:34.906Z,-4.14
2019-02-23T11:07:08.037Z,-4.10
2019-02-23T11:09:39.567Z,-4.03
2019-02-23T11:12:10.017Z,-4.00
2019-02-23T11:14:40.502Z,-3.99
2019-02-23T11:17:10.892Z,-3.88
2019-02-23T11:19:41.321Z,-3.70
2019-02-23T11:22:11.732Z,-3.66
2019-02-23T11:24:42.221Z,-3.67
2019-02-23T11:27:12.806Z,-3.62
2019-02-23T11:29:43.253Z,-3.92
2019-02-23T11:32:14.154Z,-3.96
2019-02-23T11:34:44.606Z,-4.12
2019-02-23T11:37:15.033Z,-3.92
2019-02-23T11:39:45.621Z,-3.71
2019-02-23T11:42:18.601Z,-3.67
2019-02-23T11:45:01.028Z,-3.94
2019-02-23T11:47:41.954Z,-3.62
2019-02-23T11:50:15.707Z,-3.71
2019-02-23T11:52:50.672Z,-3.59
2019-02-23T11:55:21.144Z,-3.59
2019-02-23T11:57:51.622Z,-3.38
2019-02-23T12:00:24.073Z,-3.39
2019-02-23T12:02:55.442Z,-3.67
2019-02-23T12:05:26.148Z,-3.90
2019-02-23T12:07:56.601Z,-3.84
2019-02-23T12:10:27.113Z,-3.72
2019-02-23T12:12:57.579Z,-3.61
2019-02-23T12:15:28.070Z,-3.61
2019-02-23T12:17:58.588Z,-3.33
2019-02-23T12:20:30.734Z,-3.32
2019-02-23T12:23:04.382Z,-3.55
2019-02-23T12:25:39.141Z,-3.29
2019-02-23T12:28:10.678Z,-3.84
2019-02-23T12:30:41.102Z,-3.81
2019-02-23T12:33:11.601Z,-3.53
2019-02-23T12:35:42.081Z,-3.81
2019-02-23T12:38:12.534Z,-4.11
2019-02-23T12:40:42.958Z,-3.78
2019-02-23T12:43:13.447Z,-3.99
2019-02-23T12:45:43.907Z,-3.84
2019-02-23T12:48:14.432Z,-3.80
2019-02-23T12:50:49.261Z,-3.89
2019-02-23T12:53:19.759Z,-3.80
2019-02-23T12:55:51.764Z,-3.91
2019-02-23T12:58:22.336Z,-3.98
2019-02-23T13:00:52.800Z,-3.88
2019-02-23T13:03:23.302Z,-3.83
2019-02-23T13:06:02.945Z,-3.99
2019-02-23T13:08:55.785Z,-3.97
2019-02-23T13:11:27.475Z,-4.05
2019-02-23T13:14:03.528Z,-4.02
2019-02-23T13:16:34.103Z,-4.00
2019-02-23T13:19:28.580Z,-3.95
2019-02-23T13:22:02.537Z,-3.90
2019-02-23T13:24:44.287Z,-4.07
2019-02-23T13:27:28.322Z,-4.24
2019-02-23T13:30:17.119Z,-4.16
2019-02-23T13:33:17.549Z,-4.04
2019-02-23T13:36:09.105Z,-4.04
2019-02-23T13:39:08.437Z,-4.12
2019-02-23T13:41:49.255Z,-4.14
2019-02-23T13:44:39.964Z,-4.09
2019-02-23T13:47:19.370Z,-4.23
2019-02-23T13:50:04.978Z,-4.26
2019-02-23T13:53:05.139Z,-4.31
2019-02-23T13:56:00.743Z,-4.47
2019-02-23T13:58:43.654Z,-4.57
2019-02-23T14:01:47.551Z,-4.49
2019-02-23T14:04:28.471Z,-4.45
2019-02-23T14:07:18.231Z,-4.41
2019-02-23T14:10:00.689Z,-4.47
2019-02-23T14:12:41.738Z,-4.53
2019-02-23T14:15:42.959Z,-4.45
2019-02-23T14:18:28.463Z,-4.48
2019-02-23T14:21:07.928Z,-4.62
2019-02-23T14:24:14.473Z,-4.67
2019-02-23T14:27:11.850Z,-4.71
2019-02-23T14:30:12.066Z,-4.61
2019-02-23T14:32:54.505Z,-4.55
2019-02-23T14:35:29.142Z,-4.58
2019-02-23T14:38:19.191Z,-4.61
2019-02-23T14:41:26.871Z,-4.68
2019-02-23T14:44:20.218Z,-4.68
2019-02-23T14:47:05.617Z,-4.81
2019-02-23T14:49:59.213Z,-4.85
2019-02-23T14:52:59.985Z,-4.83
2019-02-23T14:55:51.551Z,-4.82
2019-02-23T14:58:49.718Z,-4.88
2019-02-23T15:01:51.196Z,-4.94
2019-02-23T15:04:32.702Z,-4.96
2019-02-23T15:07:32.288Z,-4.95
2019-02-23T15:10:39.285Z,-4.93
2019-02-23T15:13:45.110Z,-4.95
2019-02-23T15:16:27.724Z,-4.97
2019-02-23T15:19:03.991Z,-4.95
2019-02-23T15:21:44.367Z,-5.04
2019-02-23T15:24:18.109Z,-5.01
2019-02-23T15:27:22.777Z,-5.11
2019-02-23T15:30:06.571Z,-5.03
2019-02-23T15:33:09.706Z,-5.01
2019-02-23T15:36:10.314Z,-5.05
2019-02-23T15:38:53.163Z,-5.07
2019-02-23T15:41:32.832Z,-5.16
2019-02-23T15:44:37.618Z,-5.15
2019-02-23T15:47:43.102Z,-5.21
2019-02-23T15:50:19.036Z,-5.16
2019-02-23T15:52:49.712Z,-5.19
2019-02-23T15:55:26.206Z,-5.23
2019-02-23T15:57:59.168Z,-5.28
2019-02-23T16:00:35.038Z,-5.27
2019-02-23T16:03:08.045Z,-5.36
2019-02-23T16:05:42.239Z,-5.43
2019-02-23T16:08:13.028Z,-5.40
2019-02-23T16:10:43.713Z,-5.43
2019-02-23T16:13:17.292Z,-5.47
2019-02-23T16:15:47.890Z,-5.47
2019-02-23T16:18:18.522Z,-5.49
2019-02-23T16:20:50.554Z,-5.45
2019-02-23T16:23:34.629Z,-5.34
2019-02-23T16:26:00.857Z,-5.32
2019-02-23T16:28:31.724Z,-5.44
2019-02-23T16:31:02.368Z,-5.46
2019-02-23T16:33:37.503Z,-5.60
2019-02-23T16:36:08.923Z,-5.55
2019-02-23T16:38:46.192Z,-5.50
2019-02-23T16:41:20.879Z,-5.45
2019-02-23T16:43:53.662Z,-5.49
2019-02-23T16:46:26.511Z,-5.50
2019-02-23T16:48:56.937Z,-5.51
2019-02-23T16:51:27.441Z,-5.59
2019-02-23T16:53:57.913Z,-5.70
2019-02-23T16:56:28.340Z,-5.75
2019-02-23T16:58:58.950Z,-5.77
2019-02-23T17:01:29.575Z,-5.80
2019-02-23T17:03:59.988Z,-5.83
2019-02-23T17:06:32.875Z,-5.93
2019-02-23T17:09:06.367Z,-5.94
2019-02-23T17:11:36.825Z,-5.95
2019-02-23T17:14:08.276Z,-5.90
2019-02-23T17:16:41.501Z,-5.99
2019-02-23T17:19:12.164Z,-6.07
2019-02-23T17:21:42.665Z,-6.12
2019-02-23T17:24:17.536Z,-6.18
2019-02-23T17:26:49.680Z,-6.15
2019-02-23T17:29:21.912Z,-6.20
2019-02-23T17:31:52.366Z,-6.23
2019-02-23T17:34:22.894Z,-6.26
2019-02-23T17:36:54.894Z,-6.25
2019-02-23T17:39:27.698Z,-6.23
2019-02-23T17:42:04.494Z,-6.13
2019-02-23T17:44:35.076Z,-6.14
2019-02-23T17:47:07.525Z,-6.12
2019-02-23T17:49:37.990Z,-6.26
2019-02-23T17:52:11.338Z,-6.31
2019-02-23T17:54:41.908Z,-6.37
2019-02-23T17:57:12.416Z,-6.35
2019-02-23T17:59:44.310Z,-6.41
2019-02-23T18:02:14.779Z,-6.39
2019-02-23T18:04:45.276Z,-6.37
2019-02-23T18:07:15.787Z,-6.33
2019-02-23T18:09:46.271Z,-6.35
2019-02-23T18:12:18.917Z,-6.44
2019-02-23T18:14:50.921Z,-6.48
2019-02-23T18:17:21.477Z,-6.40
2019-02-23T18:19:51.924Z,-6.37
2019-02-23T18:22:22.373Z,-6.34
2019-02-23T18:24:52.834Z,-6.39
2019-02-23T18:27:23.247Z,-6.46
2019-02-23T18:29:53.688Z,-6.42
2019-02-23T18:32:27.293Z,-6.39
2019-02-23T18:34:57.851Z,-6.59
2019-02-23T18:37:29.011Z,-6.58
2019-02-23T18:40:00.455Z,-6.65
2019-02-23T18:42:31.511Z,-6.67
2019-02-23T18:45:02.096Z,-6.58
2019-02-23T18:47:37.986Z,-6.44
2019-02-23T18:50:12.651Z,-6.50
2019-02-23T18:52:43.065Z,-6.55
2019-02-23T18:55:13.536Z,-6.55
2019-02-23T18:57:44.340Z,-6.63
2019-02-23T19:00:24.177Z,-6.63
2019-02-23T19:02:49.302Z,-6.72
2019-02-23T19:05:22.501Z,-6.65
2019-02-23T19:07:52.972Z,-6.77
2019-02-23T19:10:24.251Z,-6.78
2019-02-23T19:12:55.556Z,-6.73
2019-02-23T19:15:26.437Z,-6.78
2019-02-23T19:17:58.583Z,-6.80
2019-02-23T19:20:31.747Z,-6.80
2019-02-23T19:23:06.410Z,-6.84
2019-02-23T19:25:37.060Z,-6.90
2019-02-23T19:28:10.199Z,-6.96
2019-02-23T19:30:41.494Z,-6.90
2019-02-23T19:33:12.121Z,-7.03
2019-02-23T19:35:51.242Z,-7.06
2019-02-23T19:38:26.119Z,-7.03
2019-02-23T19:40:59.664Z,-7.03
2019-02-23T19:43:41.159Z,-7.03
2019-02-23T19:49:37.400Z,-7.03
2019-02-23T19:52:15.405Z,-7.06
2019-02-23T19:54:47.453Z,-7.13
2019-02-23T19:57:18.327Z,-7.13
2019-02-23T19:59:48.899Z,-7.23
2019-02-23T20:02:22.244Z,-7.22
2019-02-23T20:04:53.549Z,-7.24
2019-02-23T20:07:24.446Z,-7.29
2019-02-23T20:09:59.837Z,-7.34
2019-02-23T20:12:32.324Z,-7.32
2019-02-23T20:15:03.499Z,-7.32
2019-02-23T20:17:35.034Z,-7.40
2019-02-23T20:20:10.436Z,-7.37
2019-02-23T20:22:41.339Z,-7.45
2019-02-23T20:25:12.057Z,-7.42
2019-02-23T20:27:44.499Z,-7.44
2019-02-23T20:30:17.023Z,-7.44
2019-02-23T20:32:47.922Z,-7.41
2019-02-23T20:35:21.958Z,-7.47
2019-02-23T20:37:52.793Z,-7.48
2019-02-23T20:40:25.210Z,-7.55
2019-02-23T20:42:57.149Z,-7.55
2019-02-23T20:45:27.966Z,-7.62
2019-02-23T20:47:58.561Z,-7.57
2019-02-23T20:50:37.460Z,-7.57
2019-02-23T20:53:12.862Z,-7.58
2019-02-23T20:55:45.246Z,-7.59
2019-02-23T20:58:16.160Z,-7.59
2019-02-23T21:00:53.242Z,-7.69
2019-02-23T21:03:25.661Z,-7.69
2019-02-23T21:06:11.630Z,-7.68
2019-02-23T21:08:43.200Z,-7.72
2019-02-23T21:11:14.415Z,-7.70
2019-02-23T21:13:45.343Z,-7.67
2019-02-23T21:16:17.937Z,-7.68
2019-02-23T21:18:50.437Z,-7.73
2019-02-23T21:21:21.367Z,-7.78
2019-02-23T21:23:52.521Z,-7.83
2019-02-23T21:26:23.453Z,-7.85
2019-02-23T21:28:57.995Z,-7.82
2019-02-23T21:31:36.907Z,-7.82
2019-02-23T21:34:09.120Z,-7.82
2019-02-23T21:36:41.894Z,-7.90
2019-02-23T21:39:14.974Z,-7.85
2019-02-23T21:41:50.106Z,-7.89
2019-02-23T21:44:21.668Z,-7.98
2019-02-23T21:46:53.603Z,-8.03
2019-02-23T21:49:24.520Z,-8.10
2019-02-23T21:51:55.728Z,-8.05
2019-02-23T21:54:27.645Z,-8.05
2019-02-23T21:56:59.656Z,-8.08
2019-02-23T21:59:30.597Z,-8.15
2019-02-23T22:02:01.971Z,-8.18
2019-02-23T22:04:33.009Z,-8.31
2019-02-23T22:07:09.507Z,-8.29
2019-02-23T22:09:40.553Z,-8.23
2019-02-23T22:12:11.639Z,-8.23
2019-02-23T22:14:43.682Z,-8.21
2019-02-23T22:17:14.673Z,-8.27
2019-02-23T22:19:45.434Z,-8.34
2019-02-23T22:22:16.359Z,-8.34
2019-02-23T22:24:49.543Z,-8.41
2019-02-23T22:27:20.324Z,-8.40
2019-02-23T22:29:51.132Z,-8.36
2019-02-23T22:32:21.896Z,-8.36
2019-02-23T22:34:54.060Z,-8.39
2019-02-23T22:37:24.916Z,-8.45
2019-02-23T22:39:57.961Z,-8.40
2019-02-23T22:42:30.940Z,-8.40
2019-02-23T22:45:01.776Z,-8.51
2019-02-23T22:47:35.494Z,-8.41
2019-02-23T22:50:08.695Z,-8.48
2019-02-23T22:52:39.573Z,-8.44
2019-02-23T22:55:10.436Z,-8.44
2019-02-23T22:57:42.210Z,-8.48
2019-02-23T23:00:15.295Z,-8.57
2019-02-23T23:02:46.056Z,-8.48
2019-02-23T23:05:16.825Z,-8.55
2019-02-23T23:07:47.588Z,-8.54
2019-02-23T23:10:18.316Z,-8.58
2019-02-23T23:12:49.120Z,-8.62
2019-02-23T23:15:21.357Z,-8.58
2019-02-23T23:17:53.698Z,-8.55
2019-02-23T23:20:25.029Z,-8.57
2019-02-23T23:22:55.735Z,-8.64
2019-02-23T23:25:26.588Z,-8.59
2019-02-23T23:27:58.516Z,-8.64
2019-02-23T23:30:30.832Z,-8.64
2019-02-23T23:33:01.611Z,-8.68
2019-02-23T23:35:34.117Z,-8.66
2019-02-23T23:38:07.359Z,-8.66
2019-02-23T23:40:39.884Z,-8.59
2019-02-23T23:43:10.615Z,-8.60
2019-02-23T23:45:41.378Z,-8.61
2019-02-23T23:48:12.290Z,-8.64
2019-02-23T23:50:43.226Z,-8.69
2019-02-23T23:53:14.360Z,-8.70
2019-02-23T23:55:45.140Z,-8.66
2019-02-23T23:58:15.916Z,-8.74
